Time;durP1;ratioP1;P1;durP2;ratioP2;P2;SDS_P1;SDS_P2;PMS_P1;PMS_P2;Temp;Humidity;BMP_temperature;BMP_pressure;BME280_temperature;BME280_humidity;BME280_pressure;Samples;Min_cycle;Max_cycle;Signal;HPM_P1;HPM_P2
2022/04/08 00:00:43;;;;;;;;;;;8.50;99.90;;;;;;4925680;29;19923;-71
2022/04/08 00:03:10;;;;;;;;;;;8.40;99.90;;;;;;4942746;29;20389;-70
2022/04/08 00:05:42;;;;;;;;;;;8.50;99.90;;;;;;4941933;29;20395;-71
2022/04/08 00:08:09;;;;;;;;;;;8.50;99.90;;;;;;4915154;29;19930;-71
2022/04/08 00:10:35;;;;;;;;;;;8.50;99.90;;;;;;4914996;29;19923;-71
2022/04/08 00:13:02;;;;;;;;;;;8.50;99.90;;;;;;4932842;29;19922;-71
2022/04/08 00:15:30;;;;;;;;;;;8.50;99.90;;;;;;4938370;29;19927;-71
2022/04/08 00:18:02;;;;;;;;;;;8.50;99.90;;;;;;4932437;29;20035;-71
2022/04/08 00:20:34;;;;;;;;;;;8.50;99.90;;;;;;4923101;29;19929;-72
2022/04/08 00:23:05;;;;;;;;;;;8.50;99.90;;;;;;4931920;29;19927;-71
2022/04/08 00:25:32;;;;;;;;;;;8.50;99.90;;;;;;4938154;29;19923;-72
2022/04/08 00:28:04;;;;;;;;;;;8.50;99.90;;;;;;4915190;29;19930;-71
2022/04/08 00:30:30;;;;;;;;;;;8.40;99.90;;;;;;4929239;29;20402;-71
2022/04/08 00:33:02;;;;;;;;;;;8.40;99.90;;;;;;4933988;29;19923;-70
2022/04/08 00:35:33;;;;;;;;;;;8.40;99.90;;;;;;4936597;29;19953;-71
2022/04/08 00:38:06;;;;;;;;;;;8.40;99.90;;;;;;4936492;29;19922;-71
2022/04/08 00:40:38;;;;;;;;;;;8.40;99.90;;;;;;4926052;29;19930;-71
2022/04/08 00:43:14;;;;;;;;;;;8.40;99.90;;;;;;4933916;29;19958;-71
2022/04/08 00:45:46;;;;;;;;;;;8.40;99.90;;;;;;4932237;29;20334;-71
2022/04/08 00:48:18;;;;;;;;;;;8.40;99.90;;;;;;4936255;29;19933;-71
2022/04/08 00:50:49;;;;;;;;;;;8.40;99.90;;;;;;4934351;29;19923;-71
2022/04/08 00:53:21;;;;;;;;;;;8.40;99.90;;;;;;4934282;29;19922;-70
2022/04/08 00:55:54;;;;;;;;;;;8.40;99.90;;;;;;4948747;29;19922;-71
2022/04/08 00:58:26;;;;;;;;;;;8.40;99.90;;;;;;4936248;29;20017;-71
2022/04/08 01:00:58;;;;;;;;;;;8.40;99.90;;;;;;4931540;29;19931;-71
2022/04/08 01:03:24;;;;;;;;;;;8.40;99.90;;;;;;4916122;29;19923;-70
2022/04/08 01:05:51;;;;;;;;;;;8.30;99.90;;;;;;4934458;29;19923;-71
2022/04/08 01:08:23;;;;;;;;;;;8.30;99.90;;;;;;4936258;29;19926;-71
2022/04/08 01:10:50;;;;;;;;;;;8.20;99.90;;;;;;4924646;29;19923;-71
2022/04/08 01:13:21;;;;;;;;;;;8.20;99.90;;;;;;4935354;29;19978;-71
2022/04/08 01:15:48;;;;;;;;;;;8.10;99.90;;;;;;4936054;29;19945;-71
2022/04/08 01:18:20;;;;;;;;;;;8.10;99.90;;;;;;4934862;29;19923;-71
2022/04/08 01:20:46;;;;;;;;;;;8.10;99.90;;;;;;4934572;29;20293;-71
2022/04/08 01:23:15;;;;;;;;;;;8.00;99.90;;;;;;4935574;29;20013;-71
2022/04/08 01:25:42;;;;;;;;;;;8.00;99.90;;;;;;4934448;29;19922;-71
2022/04/08 01:28:13;;;;;;;;;;;8.00;99.90;;;;;;4936214;29;19933;-71
2022/04/08 01:30:45;;;;;;;;;;;8.00;99.90;;;;;;4931305;29;20022;-72
2022/04/08 01:33:12;;;;;;;;;;;7.90;99.90;;;;;;4921574;29;19927;-72
2022/04/08 01:35:43;;;;;;;;;;;7.90;99.90;;;;;;4921100;29;19970;-72
2022/04/08 01:38:15;;;;;;;;;;;7.90;99.90;;;;;;4930912;29;19975;-71
2022/04/08 01:40:42;;;;;;;;;;;7.80;99.90;;;;;;4916629;29;19927;-72
2022/04/08 01:43:08;;;;;;;;;;;7.80;99.90;;;;;;4932806;29;19953;-72
2022/04/08 01:45:35;;;;;;;;;;;7.70;99.90;;;;;;4912675;29;19923;-71
2022/04/08 01:48:07;;;;;;;;;;;7.70;99.90;;;;;;4935655;29;19927;-72
2022/04/08 01:50:38;;;;;;;;;;;7.70;99.90;;;;;;4933578;29;19937;-72
2022/04/08 01:53:10;;;;;;;;;;;7.70;99.90;;;;;;4933302;29;19927;-72
2022/04/08 01:55:42;;;;;;;;;;;7.70;99.90;;;;;;4923510;29;19930;-72
2022/04/08 01:58:10;;;;;;;;;;;7.60;99.90;;;;;;4915392;29;19934;-72
2022/04/08 02:00:37;;;;;;;;;;;7.60;99.90;;;;;;4929529;29;19935;-71
2022/04/08 02:03:09;;;;;;;;;;;7.50;99.90;;;;;;4943782;29;19937;-71
2022/04/08 02:05:41;;;;;;;;;;;7.60;99.90;;;;;;4948232;29;19927;-71
2022/04/08 02:08:13;;;;;;;;;;;7.60;99.90;;;;;;4935190;29;19926;-72
2022/04/08 02:10:39;;;;;;;;;;;7.50;99.90;;;;;;4930349;29;19927;-72
2022/04/08 02:13:11;;;;;;;;;;;7.50;99.90;;;;;;4932565;29;19922;-72
2022/04/08 02:15:42;;;;;;;;;;;7.50;99.90;;;;;;4933713;29;19923;-72
2022/04/08 02:18:09;;;;;;;;;;;7.40;99.90;;;;;;4934030;29;19934;-72
2022/04/08 02:20:36;;;;;;;;;;;7.40;99.90;;;;;;4933449;29;19945;-72
2022/04/08 02:23:07;;;;;;;;;;;7.40;99.90;;;;;;4917392;29;19923;-72
2022/04/08 02:25:34;;;;;;;;;;;7.40;99.90;;;;;;4942544;29;19923;-72
2022/04/08 02:28:04;;;;;;;;;;;7.40;99.90;;;;;;4933603;29;19927;-72
2022/04/08 02:30:36;;;;;;;;;;;7.40;99.90;;;;;;4915228;29;19933;-72
2022/04/08 02:33:08;;;;;;;;;;;7.40;99.90;;;;;;4940018;29;19923;-72
2022/04/08 02:35:40;;;;;;;;;;;7.30;99.90;;;;;;4940724;29;19962;-72
2022/04/08 02:38:11;;;;;;;;;;;7.30;99.90;;;;;;4933298;29;20425;-71
2022/04/08 02:40:43;;;;;;;;;;;7.20;99.90;;;;;;4925165;29;19923;-71
2022/04/08 02:43:10;;;;;;;;;;;7.20;99.90;;;;;;4925430;29;20311;-72
2022/04/08 02:45:41;;;;;;;;;;;7.20;99.90;;;;;;4933062;29;19922;-72
2022/04/08 02:48:08;;;;;;;;;;;7.20;99.90;;;;;;4933492;29;19933;-71
2022/04/08 02:50:34;;;;;;;;;;;7.20;99.90;;;;;;4933012;29;19948;-72
2022/04/08 02:53:01;;;;;;;;;;;7.10;99.90;;;;;;4931862;29;19931;-72
2022/04/08 02:55:28;;;;;;;;;;;7.10;99.90;;;;;;4915412;29;20461;-72
2022/04/08 02:57:59;;;;;;;;;;;7.10;99.90;;;;;;4930000;29;19966;-72
2022/04/08 03:00:31;;;;;;;;;;;7.00;99.90;;;;;;4928835;29;19970;-71
2022/04/08 03:03:03;;;;;;;;;;;7.00;99.90;;;;;;4931282;29;19922;-71
2022/04/08 03:05:34;;;;;;;;;;;7.00;99.90;;;;;;4933844;29;19923;-72
2022/04/08 03:08:01;;;;;;;;;;;7.00;99.90;;;;;;4943455;29;20361;-71
2022/04/08 03:10:28;;;;;;;;;;;7.00;99.90;;;;;;4938960;29;20002;-72
2022/04/08 03:12:54;;;;;;;;;;;7.00;99.90;;;;;;4932851;29;19944;-72
2022/04/08 03:15:26;;;;;;;;;;;7.00;99.90;;;;;;4934453;29;19930;-71
2022/04/08 03:17:52;;;;;;;;;;;7.10;99.90;;;;;;4931465;29;20389;-72
2022/04/08 03:20:19;;;;;;;;;;;7.10;99.90;;;;;;4929258;29;19923;-71
2022/04/08 03:22:46;;;;;;;;;;;7.10;99.90;;;;;;4931838;29;19994;-71
2022/04/08 03:25:19;;;;;;;;;;;7.10;99.90;;;;;;4949871;29;20028;-72
2022/04/08 03:27:51;;;;;;;;;;;7.10;99.90;;;;;;4929718;29;19966;-72
2022/04/08 03:30:18;;;;;;;;;;;7.10;99.90;;;;;;4933333;29;19923;-71
2022/04/08 03:32:44;;;;;;;;;;;7.20;99.90;;;;;;4912430;29;19922;-72
2022/04/08 03:35:16;;;;;;;;;;;7.20;99.90;;;;;;4935731;29;19954;-71
2022/04/08 03:37:48;;;;;;;;;;;7.20;99.90;;;;;;4936643;29;19923;-72
2022/04/08 03:40:15;;;;;;;;;;;7.20;99.90;;;;;;4945405;29;19923;-71
2022/04/08 03:42:46;;;;;;;;;;;7.20;99.90;;;;;;4937750;29;19923;-72
2022/04/08 03:45:13;;;;;;;;;;;7.20;99.90;;;;;;4933019;29;19982;-71
2022/04/08 03:47:40;;;;;;;;;;;7.30;99.90;;;;;;4917265;29;19971;-71
2022/04/08 03:50:12;;;;;;;;;;;7.30;99.90;;;;;;4929327;29;19929;-72
2022/04/08 03:52:43;;;;;;;;;;;7.30;99.90;;;;;;4923878;29;19923;-72
2022/04/08 03:55:17;;;;;;;;;;;7.40;99.90;;;;;;4940697;29;20397;-72
2022/04/08 03:57:48;;;;;;;;;;;7.40;99.90;;;;;;4934881;29;19923;-71
2022/04/08 04:00:20;;;;;;;;;;;7.40;99.90;;;;;;4929644;29;19962;-71
2022/04/08 04:02:51;;;;;;;;;;;7.40;99.90;;;;;;4924943;29;19929;-70
2022/04/08 04:05:23;;;;;;;;;;;7.30;99.90;;;;;;4945908;29;19923;-72
2022/04/08 04:07:58;;;;;;;;;;;7.30;99.90;;;;;;4932905;29;19926;-71
2022/04/08 04:10:29;;;;;;;;;;;7.30;99.90;;;;;;4929791;29;20386;-71
2022/04/08 04:12:56;;;;;;;;;;;7.30;99.90;;;;;;4923178;29;19954;-71
2022/04/08 04:15:27;;;;;;;;;;;7.20;99.90;;;;;;4923809;29;20401;-72
2022/04/08 04:17:59;;;;;;;;;;;7.20;99.90;;;;;;4930651;29;19927;-76
2022/04/08 04:20:26;;;;;;;;;;;7.20;99.90;;;;;;4933172;29;19930;-74
2022/04/08 04:22:57;;;;;;;;;;;7.30;99.90;;;;;;4927503;29;19929;-72
2022/04/08 04:25:29;;;;;;;;;;;7.30;99.90;;;;;;4932629;29;20053;-72
2022/04/08 04:27:56;;;;;;;;;;;7.20;99.90;;;;;;4937961;29;20034;-72
2022/04/08 04:30:28;;;;;;;;;;;7.20;99.90;;;;;;4917972;29;19923;-72
2022/04/08 04:33:00;;;;;;;;;;;7.20;99.90;;;;;;4929280;29;20251;-72
2022/04/08 04:35:32;;;;;;;;;;;7.10;99.90;;;;;;4931784;29;19922;-72
2022/04/08 04:37:59;;;;;;;;;;;7.00;99.90;;;;;;4941786;29;19930;-71
2022/04/08 04:40:31;;;;;;;;;;;7.10;99.90;;;;;;4943296;29;19927;-71
2022/04/08 04:42:57;;;;;;;;;;;7.00;99.90;;;;;;4937003;29;19924;-70
2022/04/08 04:45:24;;;;;;;;;;;6.90;99.90;;;;;;4927389;29;19929;-72
2022/04/08 04:47:56;;;;;;;;;;;6.90;99.90;;;;;;4953778;28;19926;-72
2022/04/08 04:50:22;;;;;;;;;;;6.90;99.90;;;;;;4934324;28;19930;-72
2022/04/08 04:52:54;;;;;;;;;;;6.90;99.90;;;;;;4928173;29;19923;-72
2022/04/08 04:55:20;;;;;;;;;;;6.90;99.90;;;;;;4939452;29;19926;-72
2022/04/08 04:57:53;;;;;;;;;;;6.90;99.90;;;;;;4938056;29;20013;-72
2022/04/08 05:00:24;;;;;;;;;;;6.90;99.90;;;;;;4936832;28;19923;-72
2022/04/08 05:02:51;;;;;;;;;;;6.90;99.90;;;;;;4938465;29;19922;-72
2022/04/08 05:05:23;;;;;;;;;;;6.90;99.90;;;;;;4943004;28;19958;-72
2022/04/08 05:07:49;;;;;;;;;;;6.90;99.90;;;;;;4924147;29;19929;-72
2022/04/08 05:10:16;;;;;;;;;;;6.90;99.90;;;;;;4944377;29;20308;-72
2022/04/08 05:12:43;;;;;;;;;;;6.90;99.90;;;;;;4935431;29;19966;-72
2022/04/08 05:15:14;;;;;;;;;;;6.80;99.90;;;;;;4926700;29;19926;-72
2022/04/08 05:17:42;;;;;;;;;;;6.80;99.90;;;;;;4945319;28;19926;-72
2022/04/08 05:20:09;;;;;;;;;;;6.80;99.90;;;;;;4949016;28;20393;-72
2022/04/08 05:22:36;;;;;;;;;;;6.80;99.90;;;;;;4931363;28;19923;-72
2022/04/08 05:25:08;;;;;;;;;;;6.80;99.90;;;;;;4927847;29;19922;-73
2022/04/08 05:27:43;;;;;;;;;;;6.80;99.90;;;;;;4949447;29;19930;-72
2022/04/08 05:30:18;;;;;;;;;;;6.80;99.90;;;;;;4939306;29;19970;-72
2022/04/08 05:32:50;;;;;;;;;;;6.80;99.90;;;;;;4926809;29;19923;-72
2022/04/08 05:35:17;;;;;;;;;;;6.80;99.90;;;;;;4936279;29;20572;-72
2022/04/08 05:37:45;;;;;;;;;;;6.80;99.90;;;;;;4922507;29;19969;-72
2022/04/08 05:40:22;;;;;;;;;;;6.80;99.90;;;;;;4917351;29;20382;-72
2022/04/08 05:42:54;;;;;;;;;;;6.80;99.90;;;;;;4923662;29;19958;-72
2022/04/08 05:45:21;;;;;;;;;;;6.90;99.90;;;;;;4939293;29;19961;-72
2022/04/08 05:47:54;;;;;;;;;;;6.80;99.90;;;;;;4936051;29;19930;-72
2022/04/08 05:50:21;;;;;;;;;;;6.80;99.90;;;;;;4942606;29;20429;-71
2022/04/08 05:52:53;;;;;;;;;;;6.80;99.90;;;;;;4924335;29;19923;-72
2022/04/08 05:55:24;;;;;;;;;;;6.80;99.90;;;;;;4931456;29;19962;-72
2022/04/08 05:57:53;;;;;;;;;;;6.80;99.90;;;;;;4920320;29;20483;-72
2022/04/08 06:00:25;;;;;;;;;;;6.80;99.90;;;;;;4936010;28;19922;-72
2022/04/08 06:02:57;;;;;;;;;;;6.80;99.90;;;;;;4917732;29;19933;-72
2022/04/08 06:05:24;;;;;;;;;;;6.80;99.90;;;;;;4942362;29;19972;-72
2022/04/08 06:07:56;;;;;;;;;;;6.80;99.90;;;;;;4937309;29;20775;-72
2022/04/08 06:10:24;;;;;;;;;;;6.70;99.90;;;;;;4917271;29;20361;-71
2022/04/08 06:12:51;;;;;;;;;;;6.70;99.90;;;;;;4923288;29;19946;-72
2022/04/08 06:15:26;;;;;;;;;;;6.70;99.90;;;;;;4934654;29;19923;-72
2022/04/08 06:17:57;;;;;;;;;;;6.70;99.90;;;;;;4929469;29;19922;-73
2022/04/08 06:20:29;;;;;;;;;;;6.60;99.90;;;;;;4945460;28;19993;-72
2022/04/08 06:23:04;;;;;;;;;;;6.60;99.90;;;;;;4936996;29;19957;-72
2022/04/08 06:25:31;;;;;;;;;;;6.60;99.90;;;;;;4953501;28;19933;-72
2022/04/08 06:27:58;;;;;;;;;;;6.60;99.90;;;;;;4928791;29;19930;-72
2022/04/08 06:30:31;;;;;;;;;;;6.60;99.90;;;;;;4923309;29;19926;-72
2022/04/08 06:33:03;;;;;;;;;;;6.60;99.90;;;;;;4939960;29;19922;-72
2022/04/08 06:35:35;;;;;;;;;;;6.60;99.90;;;;;;4936434;29;19933;-72
2022/04/08 06:38:06;;;;;;;;;;;6.60;99.90;;;;;;4921446;29;19926;-72
2022/04/08 06:40:35;;;;;;;;;;;6.60;99.90;;;;;;4947453;28;19923;-73
2022/04/08 06:43:02;;;;;;;;;;;6.60;99.90;;;;;;4935277;29;20026;-72
2022/04/08 06:45:29;;;;;;;;;;;6.60;99.90;;;;;;4915912;29;20043;-71
2022/04/08 06:48:01;;;;;;;;;;;6.60;99.90;;;;;;4939184;29;20366;-71
2022/04/08 06:50:28;;;;;;;;;;;6.60;99.90;;;;;;4947352;28;20381;-72
2022/04/08 06:52:59;;;;;;;;;;;6.60;99.90;;;;;;4937545;28;19923;-72
2022/04/08 06:55:31;;;;;;;;;;;6.60;99.90;;;;;;4933906;29;19933;-73
2022/04/08 06:58:03;;;;;;;;;;;6.60;99.90;;;;;;4923221;29;19923;-72
2022/04/08 07:00:35;;;;;;;;;;;6.50;99.90;;;;;;4939677;29;19929;-72
2022/04/08 07:03:07;;;;;;;;;;;6.50;99.90;;;;;;4928618;29;19923;-72
2022/04/08 07:05:38;;;;;;;;;;;6.50;99.90;;;;;;4925870;29;20001;-73
2022/04/08 07:08:05;;;;;;;;;;;6.50;99.90;;;;;;4940542;29;19929;-72
2022/04/08 07:10:40;;;;;;;;;;;6.50;99.90;;;;;;4942396;29;20374;-72
2022/04/08 07:13:12;;;;;;;;;;;6.50;99.90;;;;;;4936010;29;19930;-72
2022/04/08 07:15:43;;;;;;;;;;;6.50;99.90;;;;;;4941814;29;20028;-72
2022/04/08 07:18:10;;;;;;;;;;;6.50;99.90;;;;;;4936547;29;19937;-72
2022/04/08 07:20:37;;;;;;;;;;;6.60;99.90;;;;;;4943114;28;20373;-72
2022/04/08 07:23:08;;;;;;;;;;;6.60;99.90;;;;;;4920968;29;19923;-72
2022/04/08 07:25:40;;;;;;;;;;;6.60;99.90;;;;;;4939154;29;20397;-71
2022/04/08 07:28:12;;;;;;;;;;;6.60;99.90;;;;;;4934847;29;19923;-72
2022/04/08 07:30:43;;;;;;;;;;;6.60;99.90;;;;;;4935625;29;19930;-71
2022/04/08 07:33:15;;;;;;;;;;;6.70;99.90;;;;;;4935479;29;19949;-72
2022/04/08 07:35:42;;;;;;;;;;;6.70;99.90;;;;;;4935253;29;19923;-72
2022/04/08 07:38:13;;;;;;;;;;;6.70;99.90;;;;;;4937215;29;19929;-73
2022/04/08 07:40:45;;;;;;;;;;;6.70;99.90;;;;;;4937951;29;19929;-71
2022/04/08 07:43:17;;;;;;;;;;;6.70;99.90;;;;;;4934670;29;19945;-72
2022/04/08 07:45:44;;;;;;;;;;;6.70;99.90;;;;;;4923659;29;20150;-71
2022/04/08 07:48:15;;;;;;;;;;;6.80;99.90;;;;;;4937556;29;19926;-72
2022/04/08 07:50:48;;;;;;;;;;;6.80;99.90;;;;;;4940195;28;19985;-71
2022/04/08 07:53:15;;;;;;;;;;;6.90;99.90;;;;;;4931539;28;19926;-73
2022/04/08 07:55:42;;;;;;;;;;;7.00;99.90;;;;;;4934827;29;19924;-71
2022/04/08 07:58:15;;;;;;;;;;;7.00;99.90;;;;;;4939539;29;19929;-71
2022/04/08 08:00:46;;;;;;;;;;;7.00;99.90;;;;;;4930192;28;19922;-72
2022/04/08 08:03:19;;;;;;;;;;;6.90;99.90;;;;;;4928837;29;19962;-72
2022/04/08 08:05:53;;;;;;;;;;;6.90;99.90;;;;;;4942146;29;20250;-72
2022/04/08 08:08:20;;;;;;;;;;;7.00;99.90;;;;;;4945136;29;19961;-73
2022/04/08 08:10:47;;;;;;;;;;;6.90;99.90;;;;;;4921144;29;19922;-72
2022/04/08 08:13:18;;;;;;;;;;;7.00;99.90;;;;;;4929932;29;20359;-72
2022/04/08 08:15:45;;;;;;;;;;;7.00;99.90;;;;;;4940850;28;19926;-72
2022/04/08 08:18:12;;;;;;;;;;;7.10;99.90;;;;;;4937900;29;19922;-72
2022/04/08 08:20:44;;;;;;;;;;;7.10;99.90;;;;;;4923401;29;19934;-72
2022/04/08 08:23:15;;;;;;;;;;;7.10;99.90;;;;;;4940801;29;20373;-72
2022/04/08 08:25:47;;;;;;;;;;;7.20;99.90;;;;;;4918225;29;20005;-72
2022/04/08 08:28:21;;;;;;;;;;;7.30;99.90;;;;;;4946020;29;19923;-74
2022/04/08 08:30:48;;;;;;;;;;;7.30;99.90;;;;;;4920969;29;20017;-72
2022/04/08 08:33:20;;;;;;;;;;;7.50;99.90;;;;;;4923748;29;20045;-72
2022/04/08 08:35:51;;;;;;;;;;;7.40;99.90;;;;;;4921882;29;19929;-73
2022/04/08 08:38:19;;;;;;;;;;;7.40;99.90;;;;;;4928794;29;19922;-71
2022/04/08 08:40:50;;;;;;;;;;;7.50;99.90;;;;;;4925984;29;19992;-71
2022/04/08 08:43:22;;;;;;;;;;;7.40;99.90;;;;;;4935573;29;20401;-73
2022/04/08 08:45:49;;;;;;;;;;;7.50;99.90;;;;;;4942497;28;19922;-72
2022/04/08 08:48:16;;;;;;;;;;;7.40;99.90;;;;;;4945516;29;20333;-71
2022/04/08 08:50:47;;;;;;;;;;;7.40;99.90;;;;;;4938756;29;19927;-72
2022/04/08 08:53:19;;;;;;;;;;;7.20;99.90;;;;;;4935231;29;19926;-73
2022/04/08 08:55:51;;;;;;;;;;;7.30;99.90;;;;;;4948466;29;19927;-71
2022/04/08 08:58:17;;;;;;;;;;;7.40;99.90;;;;;;4940693;29;19927;-72
2022/04/08 09:00:49;;;;;;;;;;;7.40;99.90;;;;;;4939268;28;19964;-74
2022/04/08 09:03:21;;;;;;;;;;;7.50;99.90;;;;;;4919760;29;20173;-72
2022/04/08 09:05:52;;;;;;;;;;;7.50;99.90;;;;;;4916428;29;19922;-72
2022/04/08 09:08:31;;;;;;;;;;;7.40;99.90;;;;;;4932830;29;19930;-71
2022/04/08 09:11:03;;;;;;;;;;;7.50;99.90;;;;;;4917595;29;19923;-71
2022/04/08 09:13:43;;;;;;;;;;;7.60;99.90;;;;;;4934043;29;19923;-72
2022/04/08 09:16:23;;;;;;;;;;;7.70;99.90;;;;;;4935235;29;19922;-74
2022/04/08 09:18:55;;;;;;;;;;;7.70;99.90;;;;;;4935141;29;19953;-73
2022/04/08 09:21:22;;;;;;;;;;;7.70;99.90;;;;;;4924054;29;19930;-71
2022/04/08 09:23:50;;;;;;;;;;;7.70;99.90;;;;;;4939098;29;19929;-72
2022/04/08 09:26:21;;;;;;;;;;;7.80;99.90;;;;;;4936492;29;20301;-72
2022/04/08 09:28:55;;;;;;;;;;;7.80;99.90;;;;;;4935498;29;19986;-71
2022/04/08 09:31:27;;;;;;;;;;;7.90;99.90;;;;;;4930327;29;19923;-72
2022/04/08 09:33:58;;;;;;;;;;;7.90;99.90;;;;;;4941303;29;19922;-72
2022/04/08 09:36:35;;;;;;;;;;;8.00;99.90;;;;;;4931972;29;19923;-72
2022/04/08 09:39:06;;;;;;;;;;;8.10;99.90;;;;;;4917125;29;19978;-72
2022/04/08 09:41:36;;;;;;;;;;;8.10;99.90;;;;;;4933135;29;19923;-72
2022/04/08 09:44:09;;;;;;;;;;;8.20;99.90;;;;;;4933391;29;19923;-71
2022/04/08 09:46:40;;;;;;;;;;;8.20;99.90;;;;;;4935953;29;19929;-72
2022/04/08 09:49:07;;;;;;;;;;;8.00;99.90;;;;;;4935138;29;19929;-72
2022/04/08 09:51:39;;;;;;;;;;;8.00;99.90;;;;;;4932817;29;19923;-71
2022/04/08 09:54:07;;;;;;;;;;;8.00;99.90;;;;;;4938868;29;19929;-72
2022/04/08 09:56:34;;;;;;;;;;;8.10;99.90;;;;;;4940329;29;20016;-73
2022/04/08 09:59:05;;;;;;;;;;;8.20;99.90;;;;;;4919421;29;20022;-72
2022/04/08 10:01:37;;;;;;;;;;;8.30;99.90;;;;;;4918781;29;19926;-72
2022/04/08 10:04:09;;;;;;;;;;;8.40;99.90;;;;;;4944501;29;19966;-72
2022/04/08 10:06:40;;;;;;;;;;;8.50;99.90;;;;;;4953580;28;19923;-72
2022/04/08 10:09:13;;;;;;;;;;;8.60;99.90;;;;;;4955188;29;19926;-71
2022/04/08 10:11:59;;;;;;;;;;;8.60;99.90;;;;;;4945255;28;20021;-72
2022/04/08 10:14:30;;;;;;;;;;;8.60;99.90;;;;;;4943680;29;19923;-71
2022/04/08 10:16:57;;;;;;;;;;;8.70;99.90;;;;;;4931622;29;19927;-71
2022/04/08 10:19:24;;;;;;;;;;;8.70;99.90;;;;;;4915638;29;19923;-72
2022/04/08 10:21:55;;;;;;;;;;;8.70;99.90;;;;;;4923555;29;20352;-73
2022/04/08 10:24:28;;;;;;;;;;;8.60;99.90;;;;;;4942559;29;19923;-72
2022/04/08 10:27:01;;;;;;;;;;;8.60;99.90;;;;;;4934648;29;19930;-72
2022/04/08 10:29:33;;;;;;;;;;;8.60;99.90;;;;;;4934696;29;19929;-72
2022/04/08 10:32:14;;;;;;;;;;;8.60;99.90;;;;;;4935590;29;20374;-72
2022/04/08 10:34:46;;;;;;;;;;;8.70;99.90;;;;;;4929853;29;19923;-72
2022/04/08 10:37:15;;;;;;;;;;;8.60;99.90;;;;;;4915037;29;19969;-72
2022/04/08 10:39:42;;;;;;;;;;;8.70;99.90;;;;;;4916646;29;20017;-72
2022/04/08 10:42:21;;;;;;;;;;;8.70;99.90;;;;;;4931544;29;19922;-72
2022/04/08 10:44:47;;;;;;;;;;;8.70;99.90;;;;;;4934984;29;20355;-72
2022/04/08 10:47:23;;;;;;;;;;;8.70;99.90;;;;;;4935096;29;19929;-72
2022/04/08 10:50:00;;;;;;;;;;;8.70;99.90;;;;;;4915835;29;19926;-71
2022/04/08 10:52:39;;;;;;;;;;;8.80;99.90;;;;;;4917821;29;19941;-72
2022/04/08 10:55:11;;;;;;;;;;;8.80;99.90;;;;;;4945396;29;19969;-71
2022/04/08 10:57:53;;;;;;;;;;;8.80;99.90;;;;;;4952174;29;19923;-72
2022/04/08 11:00:25;;;;;;;;;;;8.90;99.90;;;;;;4937432;28;19929;-72
2022/04/08 11:02:53;;;;;;;;;;;8.90;99.90;;;;;;4939592;28;20441;-72
2022/04/08 11:05:24;;;;;;;;;;;8.90;99.90;;;;;;4938263;29;19937;-74
2022/04/08 11:07:58;;;;;;;;;;;8.90;99.90;;;;;;4937572;29;20025;-72
2022/04/08 11:10:31;;;;;;;;;;;8.90;99.90;;;;;;4952806;28;19922;-72
2022/04/08 11:13:00;;;;;;;;;;;8.90;99.90;;;;;;4933229;28;19922;-72
2022/04/08 11:15:31;;;;;;;;;;;8.90;99.90;;;;;;4929688;29;20018;-72
2022/04/08 11:18:05;;;;;;;;;;;8.90;99.90;;;;;;4915156;29;20351;-71
2022/04/08 11:20:34;;;;;;;;;;;9.00;99.90;;;;;;4915103;29;20306;-73
2022/04/08 11:23:05;;;;;;;;;;;9.00;99.90;;;;;;4927708;29;19929;-72
2022/04/08 11:25:32;;;;;;;;;;;9.10;99.90;;;;;;4932677;29;20287;-73
2022/04/08 11:28:00;;;;;;;;;;;9.20;99.90;;;;;;4934011;29;19923;-72
2022/04/08 11:30:33;;;;;;;;;;;9.20;99.90;;;;;;4928282;29;20013;-72
2022/04/08 11:33:14;;;;;;;;;;;9.30;99.90;;;;;;4929966;29;20396;-73
2022/04/08 11:35:41;;;;;;;;;;;9.30;99.90;;;;;;4934985;29;20060;-72
2022/04/08 11:38:13;;;;;;;;;;;9.30;99.90;;;;;;4935481;29;20025;-72
2022/04/08 11:40:40;;;;;;;;;;;9.40;99.90;;;;;;4942936;29;20301;-72
2022/04/08 11:43:07;;;;;;;;;;;9.50;99.90;;;;;;4933514;29;20342;-72
2022/04/08 11:45:39;;;;;;;;;;;9.50;99.90;;;;;;4938803;29;19922;-72
2022/04/08 11:48:06;;;;;;;;;;;9.50;99.90;;;;;;4951009;29;19946;-74
2022/04/08 11:50:37;;;;;;;;;;;9.50;99.90;;;;;;4951128;28;19926;-72
2022/04/08 11:53:03;;;;;;;;;;;9.60;99.90;;;;;;4934063;29;19926;-71
2022/04/08 11:55:36;;;;;;;;;;;9.70;99.90;;;;;;4932471;29;20013;-72
2022/04/08 11:58:16;;;;;;;;;;;9.70;99.90;;;;;;4931746;29;19923;-72
2022/04/08 12:00:48;;;;;;;;;;;9.80;99.90;;;;;;4927241;29;19927;-72
2022/04/08 12:03:21;;;;;;;;;;;9.90;99.90;;;;;;4942418;28;19938;-72
2022/04/08 12:05:48;;;;;;;;;;;10.10;99.90;;;;;;4932740;29;19926;-72
2022/04/08 12:08:16;;;;;;;;;;;10.20;99.90;;;;;;4919335;29;20016;-72
2022/04/08 12:10:52;;;;;;;;;;;10.40;99.90;;;;;;4914904;29;19931;-74
2022/04/08 12:13:20;;;;;;;;;;;10.50;99.90;;;;;;4948343;28;19978;-72
2022/04/08 12:15:49;;;;;;;;;;;10.70;99.90;;;;;;4937854;29;19950;-72
2022/04/08 12:18:22;;;;;;;;;;;10.80;99.90;;;;;;4941696;29;19977;-71
2022/04/08 12:20:56;;;;;;;;;;;10.90;99.90;;;;;;4928534;29;19923;-71
2022/04/08 12:23:28;;;;;;;;;;;10.90;99.90;;;;;;4932699;29;20302;-71
2022/04/08 12:25:56;;;;;;;;;;;11.00;99.90;;;;;;4949766;29;19989;-73
2022/04/08 12:28:24;;;;;;;;;;;11.10;99.90;;;;;;4926346;29;19930;-72
2022/04/08 12:30:55;;;;;;;;;;;11.30;99.90;;;;;;4935748;28;19926;-72
2022/04/08 12:33:27;;;;;;;;;;;11.30;99.90;;;;;;4939220;29;19923;-73
2022/04/08 12:35:54;;;;;;;;;;;11.50;99.90;;;;;;4923530;29;19922;-72
2022/04/08 12:38:25;;;;;;;;;;;11.60;99.90;;;;;;4935592;29;19922;-72
2022/04/08 12:40:58;;;;;;;;;;;11.70;99.90;;;;;;4918257;29;19963;-72
2022/04/08 12:43:24;;;;;;;;;;;11.80;99.90;;;;;;4937393;29;19923;-71
2022/04/08 12:45:51;;;;;;;;;;;11.80;99.90;;;;;;4944958;29;19926;-71
2022/04/08 12:48:17;;;;;;;;;;;11.80;99.90;;;;;;4945532;29;19938;-71
2022/04/08 12:50:49;;;;;;;;;;;11.90;99.90;;;;;;4934937;29;19923;-70
2022/04/08 12:53:16;;;;;;;;;;;11.80;99.90;;;;;;4937572;29;20008;-72
2022/04/08 12:55:42;;;;;;;;;;;11.90;99.90;;;;;;4941023;29;19931;-73
2022/04/08 12:58:14;;;;;;;;;;;11.90;99.90;;;;;;4931885;29;20545;-72
2022/04/08 13:00:41;;;;;;;;;;;11.90;99.90;;;;;;4937739;28;19929;-71
2022/04/08 13:03:09;;;;;;;;;;;12.00;99.90;;;;;;4931813;29;19929;-71
2022/04/08 13:05:36;;;;;;;;;;;12.00;99.90;;;;;;4942546;29;20009;-71
2022/04/08 13:08:02;;;;;;;;;;;12.10;99.90;;;;;;4928322;29;20355;-71
2022/04/08 13:10:35;;;;;;;;;;;12.10;99.90;;;;;;4934871;29;19979;-71
2022/04/08 13:13:07;;;;;;;;;;;12.20;99.90;;;;;;4929168;29;19961;-71
2022/04/08 13:15:33;;;;;;;;;;;12.20;99.90;;;;;;4928595;29;19933;-71
2022/04/08 13:18:01;;;;;;;;;;;12.30;99.90;;;;;;4942203;28;19938;-71
2022/04/08 13:20:28;;;;;;;;;;;12.30;99.90;;;;;;4912774;29;20743;-71
2022/04/08 13:23:00;;;;;;;;;;;12.30;99.90;;;;;;4933299;29;19957;-71
2022/04/08 13:25:32;;;;;;;;;;;12.30;99.90;;;;;;4933499;29;20001;-71
2022/04/08 13:28:04;;;;;;;;;;;12.30;99.90;;;;;;4934971;29;19926;-71
2022/04/08 13:30:36;;;;;;;;;;;12.30;99.90;;;;;;4925260;28;19922;-71
2022/04/08 13:33:08;;;;;;;;;;;12.40;99.90;;;;;;4935022;29;19922;-71
2022/04/08 13:35:40;;;;;;;;;;;12.40;99.90;;;;;;4940037;29;19923;-71
2022/04/08 13:38:12;;;;;;;;;;;12.50;99.90;;;;;;4941865;29;19974;-72
2022/04/08 13:40:38;;;;;;;;;;;12.60;99.90;;;;;;4941123;28;19922;-71
2022/04/08 13:43:10;;;;;;;;;;;12.60;99.90;;;;;;4938540;29;19949;-71
2022/04/08 13:45:37;;;;;;;;;;;12.70;99.90;;;;;;4937458;28;19930;-71
2022/04/08 13:48:08;;;;;;;;;;;12.70;99.90;;;;;;4936558;29;20404;-71
2022/04/08 13:50:40;;;;;;;;;;;12.70;99.90;;;;;;4924349;29;19930;-73
2022/04/08 13:53:07;;;;;;;;;;;12.70;99.90;;;;;;4933502;29;20267;-71
2022/04/08 13:55:39;;;;;;;;;;;12.70;99.90;;;;;;4940432;29;19923;-71
2022/04/08 13:58:05;;;;;;;;;;;12.80;99.90;;;;;;4941412;29;19931;-71
2022/04/08 14:00:32;;;;;;;;;;;12.80;99.90;;;;;;4907452;29;20922;-70
2022/04/08 14:03:04;;;;;;;;;;;12.90;99.90;;;;;;4932312;29;20025;-71
2022/04/08 14:05:31;;;;;;;;;;;13.00;99.90;;;;;;4912777;29;19923;-72
2022/04/08 14:08:03;;;;;;;;;;;13.00;99.90;;;;;;4924560;29;19929;-71
2022/04/08 14:10:29;;;;;;;;;;;13.10;99.90;;;;;;4932937;29;19977;-72
2022/04/08 14:13:03;;;;;;;;;;;13.10;99.90;;;;;;4942180;29;20001;-71
2022/04/08 14:15:30;;;;;;;;;;;13.10;99.90;;;;;;4940487;29;19945;-70
2022/04/08 14:17:57;;;;;;;;;;;13.10;99.90;;;;;;4934490;29;20045;-71
2022/04/08 14:20:28;;;;;;;;;;;13.10;99.90;;;;;;4931196;29;19923;-70
2022/04/08 14:22:55;;;;;;;;;;;13.10;99.90;;;;;;4931244;29;19929;-71
2022/04/08 14:25:27;;;;;;;;;;;13.20;99.90;;;;;;4940578;29;19922;-72
2022/04/08 14:27:59;;;;;;;;;;;13.20;99.90;;;;;;4946393;29;20404;-72
2022/04/08 14:30:25;;;;;;;;;;;13.20;99.90;;;;;;4953203;28;19954;-71
2022/04/08 14:32:58;;;;;;;;;;;13.20;99.90;;;;;;4931730;29;19923;-72
2022/04/08 14:35:29;;;;;;;;;;;13.20;99.90;;;;;;4941542;29;19929;-72
2022/04/08 14:38:01;;;;;;;;;;;12.90;99.90;;;;;;4934604;29;19961;-70
2022/04/08 14:40:33;;;;;;;;;;;12.60;99.90;;;;;;4931587;29;19954;-71
2022/04/08 14:43:01;;;;;;;;;;;12.30;99.90;;;;;;4925098;29;20021;-73
2022/04/08 14:45:28;;;;;;;;;;;12.00;99.90;;;;;;4941628;29;20017;-71